createdAt,value
2018-08-12T00:00:26.833Z,1017.31
2018-08-12T00:01:26.820Z,1017.30
2018-08-12T00:02:26.824Z,1017.25
2018-08-12T00:03:26.788Z,1017.24
2018-08-12T00:04:26.771Z,1017.24
2018-08-12T00:05:26.757Z,1017.21
2018-08-12T00:06:26.742Z,1017.16
2018-08-12T00:07:26.724Z,1017.19
2018-08-12T00:08:26.723Z,1017.19
2018-08-12T00:09:26.694Z,1017.16
2018-08-12T00:10:26.677Z,1017.17
2018-08-12T00:11:26.663Z,1017.16
2018-08-12T00:12:26.649Z,1017.14
2018-08-12T00:13:26.651Z,1017.10
2018-08-12T00:14:26.618Z,1017.14
2018-08-12T00:15:26.602Z,1017.15
2018-08-12T00:16:26.585Z,1017.09
2018-08-12T00:17:26.573Z,1017.13
2018-08-12T00:18:26.572Z,1017.10
2018-08-12T00:19:26.542Z,1017.10
2018-08-12T00:20:26.527Z,1017.08
2018-08-12T00:21:26.510Z,1017.07
2018-08-12T00:22:26.494Z,1017.02
2018-08-12T00:23:26.476Z,1017.04
2018-08-12T00:24:26.483Z,1017.03
2018-08-12T00:25:26.452Z,1017.01
2018-08-12T00:26:26.434Z,1016.97
2018-08-12T00:27:26.419Z,1016.94
2018-08-12T00:28:26.401Z,1016.93
2018-08-12T00:29:26.406Z,1016.92
2018-08-12T00:30:26.372Z,1016.92
2018-08-12T00:31:26.357Z,1016.95
2018-08-12T00:32:26.345Z,1016.91
2018-08-12T00:33:26.322Z,1016.91
2018-08-12T00:34:26.308Z,1016.88
2018-08-12T00:35:26.309Z,1016.90
2018-08-12T00:36:26.283Z,1016.88
2018-08-12T00:37:26.273Z,1016.90
2018-08-12T00:38:26.251Z,1016.87
2018-08-12T00:39:26.236Z,1016.89
2018-08-12T00:40:26.241Z,1016.88
2018-08-12T00:41:26.207Z,1016.92
2018-08-12T00:42:26.188Z,1016.92
2018-08-12T00:43:26.174Z,1016.92
2018-08-12T00:44:26.176Z,1016.91
2018-08-12T00:45:26.161Z,1016.89
2018-08-12T00:46:26.127Z,1016.91
2018-08-12T00:47:26.109Z,1016.90
2018-08-12T00:48:26.098Z,1016.90
2018-08-12T00:49:26.086Z,1016.87
2018-08-12T00:50:26.068Z,1016.88
2018-08-12T00:51:26.080Z,1016.87
2018-08-12T00:52:26.032Z,1016.83
2018-08-12T00:53:26.022Z,1016.83
2018-08-12T00:54:26.017Z,1016.83
2018-08-12T00:55:25.990Z,1016.78
2018-08-12T00:56:25.975Z,1016.78
2018-08-12T00:57:25.976Z,1016.80
2018-08-12T00:58:25.964Z,1016.78
2018-08-12T00:59:25.928Z,1016.78
2018-08-12T01:00:25.929Z,1016.81
2018-08-12T01:01:25.897Z,1016.82
2018-08-12T01:02:25.900Z,1016.83
2018-08-12T01:03:25.866Z,1016.80
2018-08-12T01:04:25.850Z,1016.82
2018-08-12T01:05:25.832Z,1016.82
2018-08-12T01:06:25.821Z,1016.79
2018-08-12T01:07:25.819Z,1016.82
2018-08-12T01:08:25.784Z,1016.82
2018-08-12T01:09:25.765Z,1016.78
2018-08-12T01:10:25.764Z,1016.80
2018-08-12T01:11:25.790Z,1016.78
2018-08-12T01:12:25.728Z,1016.77
2018-08-12T01:13:25.730Z,1016.77
2018-08-12T01:14:25.694Z,1016.76
2018-08-12T01:15:25.682Z,1016.76
2018-08-12T01:16:25.661Z,1016.71
2018-08-12T01:17:25.649Z,1016.73
2018-08-12T01:18:25.634Z,1016.75
2018-08-12T01:19:46.630Z,1016.68
2018-08-12T01:20:25.599Z,1016.68
2018-08-12T01:21:25.592Z,1016.66
2018-08-12T01:22:25.570Z,1016.66
2018-08-12T01:23:25.548Z,1016.65
2018-08-12T01:24:25.566Z,1016.64
2018-08-12T01:25:25.523Z,1016.59
2018-08-12T01:26:25.505Z,1016.61
2018-08-12T01:27:25.488Z,1016.58
2018-08-12T01:28:25.471Z,1016.63
2018-08-12T01:29:25.459Z,1016.58
2018-08-12T01:30:25.470Z,1016.60
2018-08-12T01:31:25.431Z,1016.61
2018-08-12T01:32:25.408Z,1016.59
2018-08-12T01:33:25.400Z,1016.59
2018-08-12T01:34:25.388Z,1016.57
2018-08-12T01:35:25.361Z,1016.57
2018-08-12T01:36:25.365Z,1016.60
2018-08-12T01:37:25.336Z,1016.54
2018-08-12T01:38:25.318Z,1016.58
2018-08-12T01:39:25.317Z,1016.62
2018-08-12T01:40:25.289Z,1016.58
2018-08-12T01:41:25.272Z,1016.63
2018-08-12T01:42:25.258Z,1016.59
2018-08-12T01:43:25.256Z,1016.59
2018-08-12T01:44:25.241Z,1016.58
2018-08-12T01:45:25.210Z,1016.57
2018-08-12T01:46:46.198Z,1016.56
2018-08-12T01:47:25.178Z,1016.56
2018-08-12T01:48:25.162Z,1016.56
2018-08-12T01:49:25.170Z,1016.55
2018-08-12T01:50:25.133Z,1016.52
2018-08-12T01:51:25.115Z,1016.53
2018-08-12T01:52:25.100Z,1016.53
2018-08-12T01:53:25.086Z,1016.52
2018-08-12T01:54:25.079Z,1016.48
2018-08-12T01:55:25.069Z,1016.49
2018-08-12T01:56:25.038Z,1016.50
2018-08-12T01:57:25.023Z,1016.46
2018-08-12T01:58:25.006Z,1016.44
2018-08-12T01:59:25.008Z,1016.43
2018-08-12T02:00:24.976Z,1016.41
2018-08-12T02:01:24.961Z,1016.39
2018-08-12T02:02:24.956Z,1016.39
2018-08-12T02:03:24.931Z,1016.38
2018-08-12T02:04:24.940Z,1016.34
2018-08-12T02:05:24.898Z,1016.36
2018-08-12T02:06:24.879Z,1016.32
2018-08-12T02:07:24.878Z,1016.31
2018-08-12T02:08:24.851Z,1016.30
2018-08-12T02:09:24.840Z,1016.31
2018-08-12T02:10:24.819Z,1016.31
2018-08-12T02:11:24.805Z,1016.33
2018-08-12T02:12:24.809Z,1016.29
2018-08-12T02:13:24.776Z,1016.25
2018-08-12T02:14:24.760Z,1016.27
2018-08-12T02:15:24.742Z,1016.24
2018-08-12T02:16:24.728Z,1016.25
2018-08-12T02:17:24.720Z,1016.22
2018-08-12T02:18:24.712Z,1016.24
2018-08-12T02:19:24.681Z,1016.23
2018-08-12T02:20:24.667Z,1016.18
2018-08-12T02:21:24.655Z,1016.18
2018-08-12T02:22:24.636Z,1016.17
2018-08-12T02:23:24.640Z,1016.15
2018-08-12T02:24:24.601Z,1016.13
2018-08-12T02:25:24.588Z,1016.13
2018-08-12T02:26:24.592Z,1016.09
2018-08-12T02:27:24.562Z,1016.12
2018-08-12T02:28:24.545Z,1016.10
2018-08-12T02:29:24.546Z,1016.07
2018-08-12T02:30:24.512Z,1016.05
2018-08-12T02:31:24.503Z,1016.07
2018-08-12T02:32:24.492Z,1016.03
2018-08-12T02:33:24.470Z,1016.03
2018-08-12T02:34:24.451Z,1016.02
2018-08-12T02:35:24.457Z,1016.01
2018-08-12T02:36:24.441Z,1015.98
2018-08-12T02:37:24.404Z,1015.96
2018-08-12T02:38:24.394Z,1015.95
2018-08-12T02:39:24.373Z,1015.94
2018-08-12T02:40:24.360Z,1015.87
2018-08-12T02:41:24.344Z,1015.88
2018-08-12T02:42:24.342Z,1015.83
2018-08-12T02:43:24.312Z,1015.85
2018-08-12T02:44:24.298Z,1015.84
2018-08-12T02:45:24.297Z,1015.81
2018-08-12T02:46:24.296Z,1015.80
2018-08-12T02:47:24.252Z,1015.83
2018-08-12T02:48:24.237Z,1015.78
2018-08-12T02:49:24.223Z,1015.76
2018-08-12T02:50:24.199Z,1015.75
2018-08-12T02:51:24.190Z,1015.72
2018-08-12T02:52:24.193Z,1015.71
2018-08-12T02:53:24.157Z,1015.72
2018-08-12T02:54:24.134Z,1015.69
2018-08-12T02:55:24.124Z,1015.70
2018-08-12T02:56:24.108Z,1015.67
2018-08-12T02:57:24.096Z,1015.69
2018-08-12T02:58:24.094Z,1015.63
2018-08-12T02:59:24.062Z,1015.64
2018-08-12T03:00:24.043Z,1015.66
2018-08-12T03:01:24.036Z,1015.61
2018-08-12T03:02:24.020Z,1015.58
2018-08-12T03:03:24.014Z,1015.60
2018-08-12T03:04:23.989Z,1015.59
2018-08-12T03:05:23.970Z,1015.57
2018-08-12T03:06:23.955Z,1015.55
2018-08-12T03:07:23.938Z,1015.56
2018-08-12T03:08:23.943Z,1015.58
2018-08-12T03:09:23.908Z,1015.52
2018-08-12T03:10:23.889Z,1015.53
2018-08-12T03:11:23.883Z,1015.52
2018-08-12T03:12:23.864Z,1015.48
2018-08-12T03:13:23.844Z,1015.48
2018-08-12T03:14:23.849Z,1015.48
2018-08-12T03:15:23.816Z,1015.42
2018-08-12T03:16:23.799Z,1015.43
2018-08-12T03:17:23.784Z,1015.38
2018-08-12T03:18:23.795Z,1015.42
2018-08-12T03:19:23.753Z,1015.41
2018-08-12T03:20:23.755Z,1015.43
2018-08-12T03:21:23.719Z,1015.43
2018-08-12T03:22:23.758Z,1015.42
2018-08-12T03:23:23.689Z,1015.39
2018-08-12T03:24:23.680Z,1015.39
2018-08-12T03:25:23.674Z,1015.36
2018-08-12T03:26:23.644Z,1015.38
2018-08-12T03:27:23.628Z,1015.35
2018-08-12T03:28:23.612Z,1015.33
2018-08-12T03:29:23.614Z,1015.32
2018-08-12T03:30:23.658Z,1015.32
2018-08-12T03:31:23.586Z,1015.29
2018-08-12T03:32:23.548Z,1015.28
2018-08-12T03:33:23.535Z,1015.29
2018-08-12T03:34:23.521Z,1015.27
2018-08-12T03:35:23.519Z,1015.29
2018-08-12T03:36:23.489Z,1015.28
2018-08-12T03:37:23.494Z,1015.26
2018-08-12T03:38:23.458Z,1015.23
2018-08-12T03:39:23.442Z,1015.29
2018-08-12T03:40:23.425Z,1015.27
2018-08-12T03:41:23.412Z,1015.26
2018-08-12T03:42:23.398Z,1015.24
2018-08-12T03:43:23.405Z,1015.23
2018-08-12T03:44:23.365Z,1015.22
2018-08-12T03:45:23.349Z,1015.22
2018-08-12T03:46:23.341Z,1015.24
2018-08-12T03:47:23.324Z,1015.20
2018-08-12T03:48:23.325Z,1015.27
2018-08-12T03:49:23.288Z,1015.24
2018-08-12T03:50:23.267Z,1015.26
2018-08-12T03:51:23.257Z,1015.25
2018-08-12T03:52:23.239Z,1015.21
2018-08-12T03:53:23.221Z,1015.23
2018-08-12T03:54:23.221Z,1015.20
2018-08-12T03:55:23.196Z,1015.22
2018-08-12T03:56:23.176Z,1015.20
2018-08-12T03:57:23.161Z,1015.23
2018-08-12T03:58:23.146Z,1015.19
2018-08-12T03:59:23.155Z,1015.21
2018-08-12T04:00:23.114Z,1015.22
2018-08-12T04:01:23.101Z,1015.18
2018-08-12T04:02:23.165Z,1015.17
2018-08-12T04:03:23.085Z,1015.15
2018-08-12T04:04:23.053Z,1015.13
2018-08-12T04:05:23.035Z,1015.11
2018-08-12T04:06:23.039Z,1015.13
2018-08-12T04:07:23.005Z,1015.13
2018-08-12T04:08:22.988Z,1015.15
2018-08-12T04:09:22.974Z,1015.09
2018-08-12T04:10:22.963Z,1015.10
2018-08-12T04:11:22.962Z,1015.13
2018-08-12T04:12:22.923Z,1015.10
2018-08-12T04:13:22.915Z,1015.09
2018-08-12T04:14:22.896Z,1015.09
2018-08-12T04:15:22.881Z,1015.07
2018-08-12T04:16:22.867Z,1015.06
2018-08-12T04:17:22.868Z,1015.04
2018-08-12T04:18:22.833Z,1015.07
2018-08-12T04:19:22.819Z,1015.05
2018-08-12T04:20:22.801Z,1015.05
2018-08-12T04:21:22.787Z,1015.01
2018-08-12T04:22:22.790Z,1015.05
2018-08-12T04:23:22.756Z,1015.03
2018-08-12T04:24:22.743Z,1015.05
2018-08-12T04:25:22.727Z,1015.04
2018-08-12T04:26:22.710Z,1015.04
2018-08-12T04:27:22.703Z,1015.02
2018-08-12T04:28:22.678Z,1015.04
2018-08-12T04:29:22.657Z,1015.00
2018-08-12T04:30:22.649Z,1014.98
2018-08-12T04:31:22.632Z,1014.97
2018-08-12T04:32:22.644Z,1014.92
2018-08-12T04:33:22.616Z,1014.95
2018-08-12T04:34:22.581Z,1014.94
2018-08-12T04:35:22.568Z,1014.97
2018-08-12T04:36:22.552Z,1014.92
2018-08-12T04:37:22.552Z,1014.94
2018-08-12T04:38:22.520Z,1014.96
2018-08-12T04:39:22.504Z,1014.96
2018-08-12T04:40:22.491Z,1014.98
2018-08-12T04:41:22.477Z,1014.93
2018-08-12T04:42:22.490Z,1014.99
2018-08-12T04:43:22.444Z,1014.97
2018-08-12T04:44:22.439Z,1014.94
2018-08-12T04:45:22.421Z,1014.97
2018-08-12T04:46:22.400Z,1014.97
2018-08-12T04:47:22.383Z,1014.97
2018-08-12T04:48:22.393Z,1014.94
2018-08-12T04:49:22.350Z,1014.94
2018-08-12T04:50:22.337Z,1014.96
2018-08-12T04:51:22.323Z,1014.94
2018-08-12T04:52:22.309Z,1014.97
2018-08-12T04:53:22.307Z,1014.95
2018-08-12T04:54:22.275Z,1014.95
2018-08-12T04:55:22.262Z,1014.95
2018-08-12T04:56:22.239Z,1014.95
2018-08-12T04:57:22.232Z,1014.93
2018-08-12T04:58:22.234Z,1014.95
2018-08-12T04:59:22.214Z,1014.96
2018-08-12T05:00:22.185Z,1014.93
2018-08-12T05:01:22.165Z,1014.94
2018-08-12T05:02:22.156Z,1014.91
2018-08-12T05:03:22.136Z,1014.99
2018-08-12T05:04:22.134Z,1015.00
2018-08-12T05:05:22.105Z,1015.00
2018-08-12T05:06:22.092Z,1015.02
2018-08-12T05:07:22.088Z,1014.99
2018-08-12T05:08:22.058Z,1015.04
2018-08-12T05:09:22.062Z,1015.02
2018-08-12T05:10:22.023Z,1015.04
2018-08-12T05:11:22.016Z,1015.04
2018-08-12T05:12:21.996Z,1015.02
2018-08-12T05:13:21.978Z,1015.02
2018-08-12T05:14:21.977Z,1015.03
2018-08-12T05:15:21.968Z,1015.00
2018-08-12T05:16:21.934Z,1014.99
2018-08-12T05:17:21.917Z,1014.99
2018-08-12T05:18:21.906Z,1015.00
2018-08-12T05:19:21.885Z,1014.99
2018-08-12T05:20:21.878Z,1014.99
2018-08-12T05:21:21.887Z,1015.01
2018-08-12T05:22:21.843Z,1015.02
2018-08-12T05:23:21.828Z,1014.97
2018-08-12T05:24:21.847Z,1014.98
2018-08-12T05:25:21.799Z,1014.97
2018-08-12T05:26:21.781Z,1014.95
2018-08-12T05:27:21.781Z,1014.97
2018-08-12T05:28:21.754Z,1014.97
2018-08-12T05:29:21.735Z,1014.93
2018-08-12T05:30:21.722Z,1014.88
2018-08-12T05:31:21.720Z,1014.88
2018-08-12T05:32:21.691Z,1014.87
2018-08-12T05:33:21.674Z,1014.90
2018-08-12T05:34:21.661Z,1014.88
2018-08-12T05:35:21.646Z,1014.90
2018-08-12T05:36:21.645Z,1014.86
2018-08-12T05:37:21.618Z,1014.83
2018-08-12T05:38:21.597Z,1014.81
2018-08-12T05:39:21.583Z,1014.81
2018-08-12T05:40:21.568Z,1014.79
2018-08-12T05:41:21.571Z,1014.81
2018-08-12T05:42:21.565Z,1014.81
2018-08-12T05:43:21.526Z,1014.80
2018-08-12T05:44:21.508Z,1014.82
2018-08-12T05:45:21.497Z,1014.82
2018-08-12T05:46:21.476Z,1014.83
2018-08-12T05:47:21.466Z,1014.80
2018-08-12T05:48:21.465Z,1014.81
2018-08-12T05:49:21.438Z,1014.77
2018-08-12T05:50:21.452Z,1014.75
2018-08-12T05:51:21.406Z,1014.78
2018-08-12T05:52:21.390Z,1014.71
2018-08-12T05:53:21.396Z,1014.73
2018-08-12T05:54:21.361Z,1014.68
2018-08-12T05:55:21.358Z,1014.69
2018-08-12T05:56:21.335Z,1014.68
2018-08-12T05:57:21.319Z,1014.64
2018-08-12T05:58:21.302Z,1014.59
2018-08-12T05:59:21.286Z,1014.62
2018-08-12T06:00:21.286Z,1014.63
2018-08-12T06:01:21.257Z,1014.57
2018-08-12T06:02:21.238Z,1014.56
2018-08-12T06:03:21.224Z,1014.57
2018-08-12T06:04:21.226Z,1014.56
2018-08-12T06:05:21.211Z,1014.51
2018-08-12T06:06:21.181Z,1014.54
2018-08-12T06:07:21.172Z,1014.49
2018-08-12T06:08:21.156Z,1014.54
2018-08-12T06:09:21.140Z,1014.57
2018-08-12T06:10:21.140Z,1014.50
2018-08-12T06:11:21.109Z,1014.53
2018-08-12T06:12:21.092Z,1014.54
2018-08-12T06:13:21.083Z,1014.50
2018-08-12T06:14:21.063Z,1014.53
2018-08-12T06:15:21.064Z,1014.53
2018-08-12T06:16:21.051Z,1014.57
2018-08-12T06:17:21.056Z,1014.53
2018-08-12T06:18:21.008Z,1014.58
2018-08-12T06:19:20.993Z,1014.55
2018-08-12T06:20:20.976Z,1014.55
2018-08-12T06:21:20.983Z,1014.54
2018-08-12T06:22:20.943Z,1014.55
2018-08-12T06:23:20.935Z,1014.53
2018-08-12T06:24:20.920Z,1014.56
2018-08-12T06:25:20.907Z,1014.48
2018-08-12T06:26:20.886Z,1014.48
2018-08-12T06:27:20.887Z,1014.49
2018-08-12T06:28:20.859Z,1014.48
2018-08-12T06:29:20.841Z,1014.50
2018-08-12T06:30:20.834Z,1014.52
2018-08-12T06:31:20.811Z,1014.54
2018-08-12T06:32:20.818Z,1014.53
2018-08-12T06:33:20.787Z,1014.54
2018-08-12T06:34:20.794Z,1014.56
2018-08-12T06:35:20.758Z,1014.57
2018-08-12T06:36:20.745Z,1014.55
2018-08-12T06:37:20.743Z,1014.55
2018-08-12T06:38:20.715Z,1014.54
2018-08-12T06:39:20.695Z,1014.54
2018-08-12T06:40:20.686Z,1014.56
2018-08-12T06:41:20.665Z,1014.57
2018-08-12T06:42:20.651Z,1014.52
2018-08-12T06:43:20.657Z,1014.49
2018-08-12T06:44:20.625Z,1014.49
2018-08-12T06:45:20.608Z,1014.48
2018-08-12T06:46:20.627Z,1014.51
2018-08-12T06:47:20.595Z,1014.52
2018-08-12T06:48:20.566Z,1014.45
2018-08-12T06:49:20.569Z,1014.44
2018-08-12T06:50:20.537Z,1014.44
2018-08-12T06:51:20.522Z,1014.42
2018-08-12T06:52:20.510Z,1014.42
2018-08-12T06:53:20.495Z,1014.43
2018-08-12T06:54:20.477Z,1014.48
2018-08-12T06:55:20.494Z,1014.46
2018-08-12T06:56:20.452Z,1014.43
2018-08-12T06:57:20.435Z,1014.44
2018-08-12T06:58:20.422Z,1014.45
2018-08-12T06:59:20.424Z,1014.44
2018-08-12T07:00:20.413Z,1014.46
2018-08-12T07:01:20.384Z,1014.44
2018-08-12T07:02:20.369Z,1014.44
2018-08-12T07:03:20.347Z,1014.46
2018-08-12T07:04:20.333Z,1014.47
2018-08-12T07:05:20.345Z,1014.45
2018-08-12T07:06:20.311Z,1014.43
2018-08-12T07:07:20.300Z,1014.46
2018-08-12T07:08:20.280Z,1014.41
2018-08-12T07:09:20.264Z,1014.39
2018-08-12T07:10:20.254Z,1014.41
2018-08-12T07:11:20.253Z,1014.37
2018-08-12T07:12:20.225Z,1014.37
2018-08-12T07:13:20.210Z,1014.34
2018-08-12T07:14:20.253Z,1014.40
2018-08-12T07:15:20.198Z,1014.37
2018-08-12T07:16:20.170Z,1014.37
2018-08-12T07:17:20.157Z,1014.39
2018-08-12T07:18:20.142Z,1014.36
2018-08-12T07:19:20.126Z,1014.35
2018-08-12T07:20:20.126Z,1014.34
2018-08-12T07:21:20.100Z,1014.35
2018-08-12T07:22:20.081Z,1014.33
2018-08-12T07:23:20.066Z,1014.31
2018-08-12T07:24:20.055Z,1014.36
2018-08-12T07:25:20.070Z,1014.34
2018-08-12T07:26:20.031Z,1014.42
2018-08-12T07:27:20.035Z,1014.72
2018-08-12T07:28:20.002Z,1014.87
2018-08-12T07:29:20.001Z,1015.19
2018-08-12T07:30:19.975Z,1014.87
2018-08-12T07:31:19.960Z,1014.59
2018-08-12T07:32:19.949Z,1014.42
2018-08-12T07:33:19.953Z,1014.38
2018-08-12T07:34:19.921Z,1014.35
2018-08-12T07:35:19.944Z,1014.31
2018-08-12T07:36:19.895Z,1014.30
2018-08-12T07:37:19.878Z,1014.33
2018-08-12T07:38:19.890Z,1014.31
2018-08-12T07:39:19.851Z,1014.31
2018-08-12T07:40:19.844Z,1014.30
2018-08-12T07:41:19.823Z,1014.32
2018-08-12T07:42:19.812Z,1014.31
2018-08-12T07:43:19.800Z,1014.27
2018-08-12T07:44:19.808Z,1014.22
2018-08-12T07:45:19.772Z,1014.22
2018-08-12T07:46:19.761Z,1014.22
2018-08-12T07:47:19.748Z,1014.20
2018-08-12T07:48:19.753Z,1014.23
2018-08-12T07:49:19.724Z,1014.22
2018-08-12T07:50:19.711Z,1014.21
2018-08-12T07:51:19.700Z,1014.19
2018-08-12T07:52:19.681Z,1014.21
2018-08-12T07:53:19.688Z,1014.16
2018-08-12T07:54:19.680Z,1014.18
2018-08-12T07:55:19.648Z,1014.16
2018-08-12T07:56:19.661Z,1014.15
2018-08-12T07:57:19.624Z,1014.10
2018-08-12T07:58:19.604Z,1014.12
2018-08-12T07:59:19.597Z,1014.13
2018-08-12T08:00:19.586Z,1014.08
2018-08-12T08:01:19.573Z,1014.10
2018-08-12T08:02:19.570Z,1014.03
2018-08-12T08:03:19.544Z,1014.02
2018-08-12T08:04:19.532Z,1014.04
2018-08-12T08:05:19.525Z,1014.00
2018-08-12T08:06:19.552Z,1014.01
2018-08-12T08:07:19.513Z,1014.05
2018-08-12T08:08:19.484Z,1014.00
2018-08-12T08:09:19.467Z,1014.00
2018-08-12T08:10:19.460Z,1013.99
2018-08-12T08:11:19.443Z,1014.03
2018-08-12T08:12:19.434Z,1014.01
2018-08-12T08:13:19.435Z,1013.99
2018-08-12T08:14:19.408Z,1013.98
2018-08-12T08:15:19.460Z,1013.99
2018-08-12T08:16:19.386Z,1014.01
2018-08-12T08:17:19.367Z,1014.00
2018-08-12T08:18:19.374Z,1013.91
2018-08-12T08:19:19.346Z,1013.99
2018-08-12T08:20:19.338Z,1013.99
2018-08-12T08:21:19.341Z,1014.01
2018-08-12T08:22:19.333Z,1013.98
2018-08-12T08:23:19.296Z,1014.00
2018-08-12T08:24:19.287Z,1014.00
2018-08-12T08:25:19.312Z,1014.01
2018-08-12T08:26:19.265Z,1013.97
2018-08-12T08:27:19.243Z,1014.01
2018-08-12T08:28:19.249Z,1013.95
2018-08-12T08:29:19.225Z,1014.00
2018-08-12T08:30:19.216Z,1014.00
2018-08-12T08:31:19.266Z,1014.00
2018-08-12T08:32:19.242Z,1013.99
2018-08-12T08:33:40.186Z,1013.96
2018-08-12T08:34:19.163Z,1013.99
2018-08-12T08:35:19.151Z,1013.99
2018-08-12T08:36:19.136Z,1013.97
2018-08-12T08:37:19.129Z,1013.95
2018-08-12T08:38:19.113Z,1013.96
2018-08-12T08:39:19.119Z,1013.94
2018-08-12T08:40:19.089Z,1013.94
2018-08-12T08:41:19.079Z,1013.99
2018-08-12T08:42:19.066Z,1013.96
2018-08-12T08:43:19.067Z,1013.94
2018-08-12T08:44:19.043Z,1013.94
2018-08-12T08:45:19.047Z,1013.93
2018-08-12T08:46:19.020Z,1013.91
2018-08-12T08:47:19.002Z,1013.92
2018-08-12T08:48:18.997Z,1013.92
2018-08-12T08:49:19.001Z,1013.87
2018-08-12T08:50:18.982Z,1013.95
2018-08-12T08:51:18.964Z,1013.92
2018-08-12T08:52:18.946Z,1013.89
2018-08-12T08:53:18.936Z,1013.88
2018-08-12T08:54:18.939Z,1013.83
2018-08-12T08:55:18.913Z,1013.84
2018-08-12T08:56:18.920Z,1013.82
2018-08-12T08:57:18.896Z,1013.82
2018-08-12T08:58:18.878Z,1013.81
2018-08-12T08:59:18.881Z,1013.78
2018-08-12T09:00:18.875Z,1013.84
2018-08-12T09:01:18.882Z,1013.80
2018-08-12T09:02:18.833Z,1013.79
2018-08-12T09:03:18.829Z,1013.81
2018-08-12T09:04:18.813Z,1013.79
2018-08-12T09:05:18.820Z,1013.70
2018-08-12T09:06:18.794Z,1013.72
2018-08-12T09:07:18.794Z,1013.71
2018-08-12T09:08:18.877Z,1013.74
2018-08-12T09:09:18.824Z,1013.69
2018-08-12T09:10:18.749Z,1013.64
2018-08-12T09:11:18.738Z,1013.69
2018-08-12T09:12:18.746Z,1013.67
2018-08-12T09:13:18.715Z,1013.65
2018-08-12T09:14:18.704Z,1013.68
2018-08-12T09:15:18.717Z,1013.66
2018-08-12T09:16:18.695Z,1013.70
2018-08-12T09:17:18.675Z,1013.71
2018-08-12T09:18:18.698Z,1013.69
2018-08-12T09:19:18.653Z,1013.69
2018-08-12T09:20:18.642Z,1013.74
2018-08-12T09:21:18.643Z,1013.71
2018-08-12T09:22:18.620Z,1013.72
2018-08-12T09:23:18.628Z,1013.74
2018-08-12T09:24:18.596Z,1013.78
2018-08-12T09:25:18.605Z,1013.77
2018-08-12T09:26:18.578Z,1013.82
2018-08-12T09:27:18.587Z,1013.81
2018-08-12T09:28:18.566Z,1013.85
2018-08-12T09:29:18.567Z,1013.69
2018-08-12T09:30:18.537Z,1013.65
2018-08-12T09:31:18.524Z,1013.63
2018-08-12T09:32:18.525Z,1013.60
2018-08-12T09:33:18.524Z,1013.57
2018-08-12T09:34:18.517Z,1013.53
2018-08-12T09:35:18.495Z,1013.55
2018-08-12T09:36:18.485Z,1013.53
2018-08-12T09:37:18.471Z,1013.51
2018-08-12T09:38:18.484Z,1013.57
2018-08-12T09:39:18.469Z,1013.53
2018-08-12T09:40:18.492Z,1013.53
2018-08-12T09:41:18.446Z,1013.55
2018-08-12T09:42:18.435Z,1013.59
2018-08-12T09:43:18.431Z,1013.60
2018-08-12T09:44:18.440Z,1013.58
2018-08-12T09:45:18.423Z,1013.64
2018-08-12T09:46:18.410Z,1013.63
2018-08-12T09:47:18.405Z,1013.65
2018-08-12T09:48:18.416Z,1013.62
2018-08-12T09:49:18.414Z,1013.65
2018-08-12T09:50:18.388Z,1013.64
2018-08-12T09:51:18.457Z,1013.61
2018-08-12T09:52:18.380Z,1013.65
2018-08-12T09:53:18.381Z,1013.61
2018-08-12T09:54:18.392Z,1013.60
2018-08-12T09:55:18.366Z,1013.70
2018-08-12T09:56:18.362Z,1013.71
2018-08-12T09:57:18.357Z,1013.64
2018-08-12T09:58:18.401Z,1013.60
2018-08-12T09:59:18.345Z,1013.60
2018-08-12T10:00:18.406Z,1013.56
2018-08-12T10:01:18.338Z,1013.58
2018-08-12T10:02:18.332Z,1013.51
2018-08-12T10:03:18.331Z,1013.46
2018-08-12T10:04:18.328Z,1013.50
2018-08-12T10:05:18.340Z,1013.48
2018-08-12T10:06:18.320Z,1013.52
2018-08-12T10:07:18.351Z,1013.54
2018-08-12T10:08:18.322Z,1013.47
2018-08-12T10:09:18.309Z,1013.46
2018-08-12T10:10:18.304Z,1013.48
2018-08-12T10:11:18.312Z,1013.49
2018-08-12T10:12:18.288Z,1013.48
2018-08-12T10:13:18.290Z,1013.41
2018-08-12T10:14:18.287Z,1013.46
2018-08-12T10:15:18.280Z,1013.42
2018-08-12T10:16:18.294Z,1013.40
2018-08-12T10:17:18.268Z,1013.33
2018-08-12T10:18:18.266Z,1013.32
2018-08-12T10:19:18.273Z,1013.32
2018-08-12T10:20:18.262Z,1013.30
2018-08-12T10:21:18.274Z,1013.30
2018-08-12T10:22:18.259Z,1013.24
2018-08-12T10:23:18.252Z,1013.27
2018-08-12T10:24:18.262Z,1013.32
2018-08-12T10:25:18.244Z,1013.28
2018-08-12T10:26:18.260Z,1013.31
2018-08-12T10:27:18.244Z,1013.30
2018-08-12T10:28:18.234Z,1013.25
2018-08-12T10:29:18.296Z,1013.30
2018-08-12T10:30:18.231Z,1013.26
2018-08-12T10:31:18.224Z,1013.24
2018-08-12T10:32:18.221Z,1013.21
2018-08-12T10:33:18.242Z,1013.24
2018-08-12T10:34:18.216Z,1013.21
2018-08-12T10:35:18.216Z,1013.22
2018-08-12T10:36:18.215Z,1013.16
2018-08-12T10:37:18.214Z,1013.01
2018-08-12T10:38:18.205Z,1013.11
2018-08-12T10:39:18.221Z,1013.05
2018-08-12T10:40:18.202Z,1013.06
2018-08-12T10:41:18.196Z,1013.01
2018-08-12T10:42:18.200Z,1013.03
2018-08-12T10:43:18.194Z,1013.08
2018-08-12T10:44:18.224Z,1013.02
2018-08-12T10:45:18.190Z,1013.00
2018-08-12T10:46:18.209Z,1012.97
2018-08-12T10:47:18.193Z,1013.01
2018-08-12T10:48:18.194Z,1012.92
2018-08-12T10:49:18.194Z,1012.92
2018-08-12T10:50:18.170Z,1012.94
2018-08-12T10:51:18.169Z,1012.95
2018-08-12T10:52:18.167Z,1012.92
2018-08-12T10:53:18.165Z,1012.89
2018-08-12T10:54:18.161Z,1012.85
2018-08-12T10:55:18.170Z,1012.87
2018-08-12T10:56:18.151Z,1012.92
2018-08-12T10:57:18.153Z,1012.92
2018-08-12T10:58:18.149Z,1012.87
2018-08-12T10:59:18.214Z,1012.85
2018-08-12T11:00:18.162Z,1012.85
2018-08-12T11:01:18.140Z,1012.84
2018-08-12T11:02:18.138Z,1012.87
2018-08-12T11:03:18.138Z,1012.87
2018-08-12T11:04:18.143Z,1012.91
2018-08-12T11:05:18.151Z,1012.84
2018-08-12T11:06:18.133Z,1012.79
2018-08-12T11:07:18.139Z,1012.75
2018-08-12T11:08:18.124Z,1012.80
2018-08-12T11:09:18.125Z,1012.79
2018-08-12T11:10:18.133Z,1012.70
2018-08-12T11:11:18.117Z,1012.77
2018-08-12T11:12:18.166Z,1012.67
2018-08-12T11:13:18.130Z,1012.71
2018-08-12T11:14:18.112Z,1012.69
2018-08-12T11:15:18.112Z,1012.68
2018-08-12T11:16:18.111Z,1012.68
2018-08-12T11:17:18.111Z,1012.69
2018-08-12T11:18:18.125Z,1012.71
2018-08-12T11:19:18.108Z,1012.67
2018-08-12T11:20:18.116Z,1012.70
2018-08-12T11:21:18.103Z,1012.67
2018-08-12T11:22:18.104Z,1012.64
2018-08-12T11:23:18.121Z,1012.68
2018-08-12T11:24:18.102Z,1012.64
2018-08-12T11:25:18.099Z,1012.60
2018-08-12T11:26:18.102Z,1012.58
2018-08-12T11:27:18.092Z,1012.58
2018-08-12T11:28:18.098Z,1012.58
2018-08-12T11:29:18.104Z,1012.55
2018-08-12T11:30:18.089Z,1012.56
2018-08-12T11:31:18.091Z,1012.51
2018-08-12T11:32:18.086Z,1012.50
2018-08-12T11:33:18.088Z,1012.49
2018-08-12T11:34:18.097Z,1012.46
2018-08-12T11:35:18.079Z,1012.43
2018-08-12T11:36:18.082Z,1012.39
2018-08-12T11:37:18.083Z,1012.44
2018-08-12T11:38:18.075Z,1012.43
2018-08-12T11:39:18.089Z,1012.38
2018-08-12T11:40:18.073Z,1012.39
2018-08-12T11:41:18.189Z,1012.33
2018-08-12T11:42:18.070Z,1012.38
2018-08-12T11:43:18.071Z,1012.35
2018-08-12T11:44:18.086Z,1012.31
2018-08-12T11:45:18.063Z,1012.28
2018-08-12T11:46:18.065Z,1012.28
2018-08-12T11:47:18.068Z,1012.22
2018-08-12T11:48:18.059Z,1012.11
2018-08-12T11:49:18.081Z,1012.15
2018-08-12T11:50:18.074Z,1012.22
2018-08-12T11:51:18.063Z,1012.24
2018-08-12T11:52:18.062Z,1012.21
2018-08-12T11:53:18.059Z,1012.22
2018-08-12T11:54:18.053Z,1012.17
2018-08-12T11:55:18.082Z,1012.13
2018-08-12T11:56:18.062Z,1012.13
2018-08-12T11:57:18.063Z,1012.13
2018-08-12T11:58:18.068Z,1012.14
2018-08-12T11:59:18.053Z,1012.11
2018-08-12T12:00:18.044Z,1012.07
2018-08-12T12:01:18.063Z,1012.04
2018-08-12T12:02:18.157Z,1012.02
2018-08-12T12:03:18.044Z,1012.03
2018-08-12T12:04:18.059Z,1012.02
2018-08-12T12:05:18.044Z,1012.04